createdAt,value
2023-01-30T00:00:03.870Z,-1.90
2023-01-30T00:02:34.542Z,-1.90
2023-01-30T00:05:04.713Z,-1.80
2023-01-30T00:07:34.795Z,-1.80
2023-01-30T00:10:05.315Z,-1.90
2023-01-30T00:12:38.410Z,-1.80
2023-01-30T00:15:10.100Z,-1.80
2023-01-30T00:17:40.844Z,-1.80
2023-01-30T00:20:15.458Z,-1.70
2023-01-30T00:22:59.289Z,-1.90
2023-01-30T00:25:31.719Z,-1.60
2023-01-30T00:28:05.407Z,-1.80
2023-01-30T00:30:35.520Z,-1.70
2023-01-30T00:33:06.267Z,-1.80
2023-01-30T00:35:36.531Z,-1.70
2023-01-30T00:38:07.183Z,-1.70
2023-01-30T00:40:37.977Z,-1.80
2023-01-30T00:43:25.268Z,-1.80
2023-01-30T00:46:10.502Z,-1.70
2023-01-30T00:48:40.675Z,-1.80
2023-01-30T00:51:11.940Z,-1.70
2023-01-30T00:53:42.375Z,-1.90
2023-01-30T00:56:12.639Z,-1.90
2023-01-30T00:58:45.568Z,-1.90
2023-01-30T01:01:16.820Z,-1.90
2023-01-30T01:03:46.823Z,-1.90
2023-01-30T01:06:17.911Z,-1.60
2023-01-30T01:08:48.930Z,-1.80
2023-01-30T01:11:24.940Z,-1.70
2023-01-30T01:13:59.446Z,-2.00
2023-01-30T01:16:31.466Z,-1.50
2023-01-30T01:19:02.375Z,-1.40
2023-01-30T01:21:33.101Z,-1.70
2023-01-30T01:24:03.595Z,-1.40
2023-01-30T01:26:34.884Z,-1.70
2023-01-30T01:29:08.601Z,-1.40
2023-01-30T01:31:39.165Z,-1.70
2023-01-30T01:34:09.555Z,-1.50
2023-01-30T01:36:55.581Z,-1.30
2023-01-30T01:39:46.469Z,-1.60
2023-01-30T01:42:14.357Z,-1.70
2023-01-30T01:45:19.005Z,-1.30
2023-01-30T01:48:00.350Z,-1.50
2023-01-30T01:50:34.441Z,-1.40
2023-01-30T01:53:06.099Z,-1.70
2023-01-30T01:55:36.844Z,-1.40
2023-01-30T01:58:14.334Z,-1.70
2023-01-30T02:00:47.992Z,-1.40
2023-01-30T02:03:22.853Z,-1.60
2023-01-30T02:06:06.243Z,-1.70
2023-01-30T02:08:41.264Z,-1.50
2023-01-30T02:11:15.534Z,-1.60
2023-01-30T02:13:48.509Z,-1.50
2023-01-30T02:16:24.488Z,-1.60
2023-01-30T02:18:54.873Z,-1.60
2023-01-30T02:21:56.222Z,-1.60
2023-01-30T02:24:45.335Z,-1.50
2023-01-30T02:27:42.270Z,-1.40
2023-01-30T02:30:52.866Z,-1.60
2023-01-30T02:33:31.606Z,-1.50
2023-01-30T02:36:12.694Z,-1.50
2023-01-30T02:38:50.904Z,-1.40
2023-01-30T02:41:30.848Z,-1.50
2023-01-30T02:44:08.203Z,-1.20
2023-01-30T02:46:49.593Z,-1.10
2023-01-30T02:49:23.921Z,-1.10
2023-01-30T02:51:55.572Z,-1.30
2023-01-30T02:54:26.512Z,-1.40
2023-01-30T02:57:04.595Z,-1.40
2023-01-30T02:59:37.914Z,-1.00
2023-01-30T03:02:30.400Z,-1.10
2023-01-30T03:05:22.935Z,-1.20
2023-01-30T03:08:02.088Z,-1.30
2023-01-30T03:10:38.227Z,-1.30
2023-01-30T03:13:18.112Z,-1.30
2023-01-30T03:15:53.758Z,-1.20
2023-01-30T03:18:28.308Z,-1.20
2023-01-30T03:20:58.981Z,-1.10
2023-01-30T03:23:29.693Z,-1.10
2023-01-30T03:25:59.907Z,-1.30
2023-01-30T03:28:31.953Z,-1.20
2023-01-30T03:31:02.233Z,-1.00
2023-01-30T03:33:35.936Z,-1.20
2023-01-30T03:36:06.305Z,-0.90
2023-01-30T03:38:38.554Z,-0.90
2023-01-30T03:41:09.523Z,-0.70
2023-01-30T03:43:40.000Z,-0.70
2023-01-30T03:46:10.514Z,-1.00
2023-01-30T03:48:45.506Z,-0.70
2023-01-30T03:51:16.907Z,-0.70
2023-01-30T03:53:47.517Z,-0.90
2023-01-30T03:56:18.050Z,-0.70
2023-01-30T03:58:48.766Z,-0.70
2023-01-30T04:01:21.721Z,-0.50
2023-01-30T04:03:55.905Z,-0.60
2023-01-30T04:06:26.168Z,-0.40
2023-01-30T04:08:57.867Z,-0.50
2023-01-30T04:11:38.033Z,-0.70
2023-01-30T04:14:08.832Z,-0.80
2023-01-30T04:16:49.026Z,-0.40
2023-01-30T04:20:00.755Z,-0.50
2023-01-30T04:22:32.279Z,-0.50
2023-01-30T04:25:02.439Z,-0.40
2023-01-30T04:27:34.308Z,-0.50
2023-01-30T04:30:15.434Z,-0.60
2023-01-30T04:32:46.965Z,-0.30
2023-01-30T04:35:20.248Z,-0.60
2023-01-30T04:37:51.285Z,-0.30
2023-01-30T04:40:23.491Z,-0.50
2023-01-30T04:42:54.062Z,-0.60
2023-01-30T04:45:39.233Z,-0.50
2023-01-30T04:48:10.367Z,-0.20
2023-01-30T04:50:44.086Z,-0.30
2023-01-30T04:53:15.747Z,-0.50
2023-01-30T04:55:46.610Z,-0.60
2023-01-30T04:58:17.200Z,-0.30
2023-01-30T05:00:47.178Z,-0.50
2023-01-30T05:03:18.573Z,0.00
2023-01-30T05:05:52.486Z,0.00
2023-01-30T05:08:23.450Z,-0.10
2023-01-30T05:10:53.588Z,0.00
2023-01-30T05:13:24.278Z,0.00
2023-01-30T05:15:54.507Z,0.00
2023-01-30T05:18:24.951Z,-0.10
2023-01-30T05:20:57.830Z,0.00
2023-01-30T05:23:28.397Z,-0.10
2023-01-30T05:25:58.731Z,-0.30
2023-01-30T05:28:29.891Z,-0.20
2023-01-30T05:31:05.262Z,-0.30
2023-01-30T05:33:35.734Z,-0.10
2023-01-30T05:36:09.191Z,-0.20
2023-01-30T05:38:39.290Z,-0.20
2023-01-30T05:41:11.084Z,-0.20
2023-01-30T05:43:41.323Z,-0.10
2023-01-30T05:46:15.240Z,-0.20
2023-01-30T05:48:45.755Z,-0.20
2023-01-30T05:51:23.653Z,-0.10
2023-01-30T05:53:54.182Z,-0.20
2023-01-30T05:56:26.658Z,0.00
2023-01-30T05:58:58.920Z,-0.10
2023-01-30T06:01:30.362Z,-0.20
2023-01-30T06:04:02.229Z,-0.10
2023-01-30T06:06:37.239Z,0.00
2023-01-30T06:09:07.786Z,-0.10
2023-01-30T06:11:37.955Z,-0.30
2023-01-30T06:14:08.523Z,-0.30
2023-01-30T06:16:41.703Z,0.10
2023-01-30T06:19:13.215Z,-0.30
2023-01-30T06:21:48.077Z,-0.30
2023-01-30T06:24:18.772Z,0.20
2023-01-30T06:26:48.746Z,-0.10
2023-01-30T06:29:19.686Z,0.20
2023-01-30T06:31:50.838Z,0.10
2023-01-30T06:34:21.244Z,-0.20
2023-01-30T06:36:53.711Z,-0.10
2023-01-30T06:39:23.721Z,-0.10
2023-01-30T06:41:53.653Z,0.00
2023-01-30T06:44:23.666Z,0.20
2023-01-30T06:46:54.282Z,0.00
2023-01-30T06:49:24.367Z,0.20
2023-01-30T06:51:58.683Z,0.10
2023-01-30T06:54:28.524Z,0.10
2023-01-30T06:56:58.330Z,0.10
2023-01-30T06:59:28.306Z,0.20
2023-01-30T07:01:58.273Z,0.10
2023-01-30T07:04:28.991Z,0.00
2023-01-30T07:07:01.788Z,0.10
2023-01-30T07:09:32.323Z,0.10
2023-01-30T07:12:02.094Z,0.10
2023-01-30T07:14:31.930Z,0.50
2023-01-30T07:17:01.890Z,0.30
2023-01-30T07:19:34.639Z,0.50
2023-01-30T07:22:07.199Z,0.40
2023-01-30T07:24:37.604Z,0.80
2023-01-30T07:27:07.398Z,0.90
2023-01-30T07:29:42.412Z,0.90
2023-01-30T07:32:19.310Z,0.90
2023-01-30T07:34:49.927Z,1.40
2023-01-30T07:37:23.436Z,1.10
2023-01-30T07:39:53.320Z,1.30
2023-01-30T07:42:23.080Z,1.10
2023-01-30T07:44:56.176Z,1.40
2023-01-30T07:47:26.309Z,1.30
2023-01-30T07:49:57.392Z,1.30
2023-01-30T07:52:29.799Z,1.20
2023-01-30T07:55:01.458Z,1.10
2023-01-30T07:57:32.475Z,0.90
2023-01-30T08:00:04.951Z,1.00
2023-01-30T08:02:38.560Z,1.00
2023-01-30T08:05:10.247Z,0.90
2023-01-30T08:07:44.697Z,1.00
2023-01-30T08:10:15.198Z,1.00
2023-01-30T08:12:45.922Z,1.10
2023-01-30T08:15:16.412Z,0.90
2023-01-30T08:17:46.322Z,1.10
2023-01-30T08:20:18.580Z,1.20
2023-01-30T08:22:51.276Z,1.30
2023-01-30T08:25:21.254Z,1.70
2023-01-30T08:27:53.953Z,1.60
2023-01-30T08:30:25.211Z,1.80
2023-01-30T08:32:56.642Z,1.80
2023-01-30T08:35:26.539Z,1.60
2023-01-30T08:37:59.671Z,1.70
2023-01-30T08:40:29.592Z,1.60
2023-01-30T08:42:59.932Z,1.70
2023-01-30T08:45:29.755Z,1.80
2023-01-30T08:48:01.670Z,1.80
2023-01-30T08:50:31.839Z,1.50
2023-01-30T08:53:06.776Z,1.70
2023-01-30T08:55:37.587Z,1.90
2023-01-30T08:58:07.715Z,1.50
2023-01-30T09:00:39.383Z,1.80
2023-01-30T09:03:10.024Z,1.60
2023-01-30T09:05:39.965Z,1.70
2023-01-30T09:08:12.435Z,1.60
2023-01-30T09:10:44.353Z,1.80
2023-01-30T09:13:14.415Z,1.70
2023-01-30T09:15:45.845Z,1.60
2023-01-30T09:18:15.667Z,1.90
2023-01-30T09:20:46.340Z,1.90
2023-01-30T09:23:19.142Z,1.80
2023-01-30T09:25:49.617Z,2.00
2023-01-30T09:28:19.529Z,1.80
2023-01-30T09:30:49.946Z,2.10
2023-01-30T09:33:20.463Z,1.90
2023-01-30T09:35:50.719Z,1.80
2023-01-30T09:38:23.451Z,2.00
2023-01-30T09:41:07.735Z,1.80
2023-01-30T09:43:55.017Z,1.80
2023-01-30T09:46:34.830Z,1.80
2023-01-30T09:49:11.349Z,1.80
2023-01-30T09:51:55.025Z,1.80
2023-01-30T09:54:32.208Z,2.30
2023-01-30T09:57:21.565Z,2.40
2023-01-30T10:00:00.020Z,2.10
2023-01-30T10:02:50.251Z,2.10
2023-01-30T10:05:20.608Z,2.20
2023-01-30T10:08:05.005Z,2.40
2023-01-30T10:11:00.741Z,2.20
2023-01-30T10:14:00.777Z,2.20
2023-01-30T10:16:37.349Z,2.20
2023-01-30T10:19:35.995Z,2.30
2023-01-30T10:22:17.156Z,2.50
2023-01-30T10:24:59.146Z,2.10
2023-01-30T10:27:33.972Z,2.20
2023-01-30T10:30:06.894Z,2.00
2023-01-30T10:32:48.361Z,2.10
2023-01-30T10:35:21.970Z,2.40
2023-01-30T10:38:01.160Z,2.70
2023-01-30T10:40:36.381Z,2.70
2023-01-30T10:43:18.124Z,2.30
2023-01-30T10:45:57.367Z,2.20
2023-01-30T10:48:55.063Z,2.20
2023-01-30T10:51:41.282Z,2.30
2023-01-30T10:54:19.653Z,2.00
2023-01-30T10:56:57.694Z,2.20
2023-01-30T10:59:43.270Z,2.50
2023-01-30T11:02:26.578Z,2.60
2023-01-30T11:05:01.340Z,3.00
2023-01-30T11:07:35.627Z,2.60
2023-01-30T11:10:05.569Z,2.70
2023-01-30T11:12:35.413Z,2.80
2023-01-30T11:15:09.117Z,2.40
2023-01-30T11:17:41.986Z,2.50
2023-01-30T11:20:17.914Z,2.40
2023-01-30T11:22:55.143Z,2.60
2023-01-30T11:25:36.227Z,2.50
2023-01-30T11:28:22.051Z,2.20
2023-01-30T11:31:05.904Z,2.10
2023-01-30T11:33:49.748Z,2.00
2023-01-30T11:36:29.459Z,2.00
2023-01-30T11:39:06.916Z,2.30
2023-01-30T11:42:09.404Z,2.50
2023-01-30T11:45:42.100Z,2.60
2023-01-30T11:49:02.876Z,2.50
2023-01-30T11:51:41.312Z,2.50
2023-01-30T11:54:19.081Z,2.40
2023-01-30T11:56:53.129Z,2.80
2023-01-30T12:02:41.445Z,2.60
2023-01-30T12:05:35.359Z,2.50
2023-01-30T12:08:24.649Z,2.50
2023-01-30T12:11:02.575Z,2.20
2023-01-30T12:13:37.111Z,2.20
2023-01-30T12:16:24.781Z,2.10
2023-01-30T12:19:02.237Z,2.10
2023-01-30T12:21:45.561Z,2.20
2023-01-30T12:24:23.621Z,2.10
2023-01-30T12:26:59.538Z,2.10
2023-01-30T12:29:33.765Z,2.20
2023-01-30T12:32:10.027Z,2.50
2023-01-30T12:34:41.189Z,2.40
2023-01-30T12:37:40.208Z,2.30
2023-01-30T12:40:19.843Z,2.50
2023-01-30T12:43:09.335Z,2.50
2023-01-30T12:45:45.938Z,2.40
2023-01-30T12:49:07.843Z,2.30
2023-01-30T12:51:58.180Z,2.70
2023-01-30T12:54:42.843Z,2.30
2023-01-30T12:57:25.678Z,2.30
2023-01-30T13:00:08.589Z,2.20
2023-01-30T13:02:56.054Z,2.50
2023-01-30T13:05:35.893Z,2.20
2023-01-30T13:08:34.746Z,2.20
2023-01-30T13:11:19.453Z,2.30
2023-01-30T13:13:56.023Z,2.30
2023-01-30T13:16:34.314Z,2.50
2023-01-30T13:19:09.272Z,2.20
2023-01-30T13:21:53.154Z,2.40
2023-01-30T13:24:28.222Z,2.30
2023-01-30T13:27:04.182Z,2.20
2023-01-30T13:29:38.891Z,1.90
2023-01-30T13:32:17.306Z,1.80
2023-01-30T13:34:49.499Z,2.00
2023-01-30T13:37:20.920Z,2.20
2023-01-30T13:39:53.864Z,2.00
2023-01-30T13:42:32.803Z,2.20
2023-01-30T13:45:05.421Z,2.00
2023-01-30T13:47:47.130Z,2.00
2023-01-30T13:50:33.586Z,2.10
2023-01-30T13:53:11.569Z,2.20
2023-01-30T13:55:49.648Z,2.40
2023-01-30T13:58:41.621Z,2.10
2023-01-30T14:01:12.260Z,2.40
2023-01-30T14:03:42.645Z,2.10
2023-01-30T14:06:29.118Z,2.10
2023-01-30T14:09:01.720Z,2.00
2023-01-30T14:11:36.506Z,2.20
2023-01-30T14:14:32.557Z,2.20
2023-01-30T14:17:13.114Z,2.30
2023-01-30T14:23:09.240Z,2.00
2023-01-30T14:25:49.041Z,2.40
2023-01-30T14:28:55.384Z,2.20
2023-01-30T14:31:58.164Z,2.20
2023-01-30T14:34:50.203Z,2.30
2023-01-30T14:37:46.638Z,2.20
2023-01-30T14:40:33.839Z,2.10
2023-01-30T14:43:42.905Z,2.10
2023-01-30T14:46:56.462Z,2.30
2023-01-30T14:49:33.057Z,2.40
2023-01-30T14:52:05.537Z,2.10
2023-01-30T14:54:42.662Z,2.10
2023-01-30T14:57:22.751Z,2.10
2023-01-30T15:00:14.982Z,2.10
2023-01-30T15:02:54.074Z,2.40
2023-01-30T15:05:33.013Z,2.30
2023-01-30T15:08:10.631Z,2.20
2023-01-30T15:11:07.714Z,2.20
2023-01-30T15:13:51.543Z,2.00
2023-01-30T15:16:36.173Z,2.20
2023-01-30T15:19:19.055Z,1.80
2023-01-30T15:22:04.792Z,1.80
2023-01-30T15:25:16.880Z,1.90
2023-01-30T15:27:59.289Z,2.00
2023-01-30T15:30:43.343Z,1.80
2023-01-30T15:33:31.053Z,1.70
2023-01-30T15:36:01.661Z,1.90
2023-01-30T15:38:35.911Z,2.00
2023-01-30T15:41:08.743Z,2.00
2023-01-30T15:43:54.472Z,1.90
2023-01-30T15:46:32.838Z,1.80
2023-01-30T15:49:20.650Z,2.00
2023-01-30T15:51:51.655Z,2.10
2023-01-30T15:54:27.100Z,2.10
2023-01-30T15:57:01.948Z,2.10
2023-01-30T15:59:36.016Z,2.40
2023-01-30T16:02:09.752Z,2.20
2023-01-30T16:04:39.649Z,2.10
2023-01-30T16:07:19.783Z,2.00
2023-01-30T16:10:08.525Z,2.10
2023-01-30T16:12:41.183Z,2.10
2023-01-30T16:15:19.852Z,2.30
2023-01-30T16:18:00.123Z,2.20
2023-01-30T16:20:30.209Z,2.20
2023-01-30T16:23:00.910Z,2.50
2023-01-30T16:25:34.577Z,2.30
2023-01-30T16:28:05.055Z,2.30
2023-01-30T16:30:35.167Z,2.30
2023-01-30T16:33:12.261Z,2.60
2023-01-30T16:35:47.328Z,2.20
2023-01-30T16:38:41.183Z,2.10
2023-01-30T16:44:31.908Z,2.30
2023-01-30T16:47:08.248Z,2.20
2023-01-30T16:49:48.427Z,2.10
2023-01-30T16:52:22.318Z,2.40
2023-01-30T16:54:55.036Z,2.40
2023-01-30T16:57:36.004Z,2.30
2023-01-30T17:00:22.394Z,2.40
2023-01-30T17:02:56.855Z,2.10
2023-01-30T17:05:28.486Z,2.30
2023-01-30T17:08:00.897Z,2.00
2023-01-30T17:10:56.489Z,2.10
2023-01-30T17:13:38.180Z,2.30
2023-01-30T17:16:29.074Z,2.30
2023-01-30T17:18:59.734Z,2.10
2023-01-30T17:21:32.111Z,2.10
2023-01-30T17:24:05.186Z,2.30
2023-01-30T17:26:35.906Z,2.30
2023-01-30T17:29:11.913Z,2.40
2023-01-30T17:31:57.327Z,2.10
2023-01-30T17:34:28.877Z,2.20
2023-01-30T17:40:19.892Z,2.00
2023-01-30T17:42:50.023Z,2.30
2023-01-30T17:45:20.166Z,2.30
2023-01-30T17:47:53.090Z,2.30
2023-01-30T17:50:26.227Z,2.20
2023-01-30T17:52:56.795Z,2.20
2023-01-30T17:55:27.221Z,2.20
2023-01-30T17:57:57.536Z,2.10
2023-01-30T18:00:27.524Z,2.10
2023-01-30T18:03:00.274Z,2.00
2023-01-30T18:05:30.169Z,2.20
2023-01-30T18:08:00.308Z,2.10
2023-01-30T18:10:30.662Z,2.10
2023-01-30T18:13:00.687Z,2.40
2023-01-30T18:15:30.774Z,2.30
2023-01-30T18:18:03.183Z,2.30
2023-01-30T18:20:32.917Z,2.20
2023-01-30T18:23:03.210Z,2.50
2023-01-30T18:25:32.966Z,2.30
2023-01-30T18:28:03.666Z,2.10
2023-01-30T18:30:33.564Z,2.60
2023-01-30T18:33:06.941Z,2.40
2023-01-30T18:35:36.891Z,2.30
2023-01-30T18:38:07.360Z,2.40
2023-01-30T18:40:37.184Z,2.10
2023-01-30T18:43:07.424Z,2.10
2023-01-30T18:45:37.260Z,2.20
2023-01-30T18:48:10.126Z,2.20
2023-01-30T18:50:39.971Z,2.10
2023-01-30T18:53:10.496Z,2.30
2023-01-30T18:55:40.287Z,2.40
2023-01-30T18:58:10.956Z,2.60
2023-01-30T19:00:41.159Z,2.10
2023-01-30T19:03:13.591Z,2.30
2023-01-30T19:05:43.378Z,2.10
2023-01-30T19:08:13.677Z,2.10
2023-01-30T19:10:43.491Z,2.40
2023-01-30T19:13:35.738Z,2.20
2023-01-30T19:16:06.856Z,2.10
2023-01-30T19:18:39.691Z,1.90
2023-01-30T19:21:09.456Z,1.80
2023-01-30T19:23:40.435Z,1.80
2023-01-30T19:26:10.958Z,2.00
2023-01-30T19:28:42.146Z,1.80
2023-01-30T19:31:13.823Z,2.00
2023-01-30T19:33:48.396Z,2.00
2023-01-30T19:36:21.073Z,2.00
2023-01-30T19:38:51.974Z,1.90
2023-01-30T19:41:24.474Z,1.80
2023-01-30T19:43:55.699Z,2.00
2023-01-30T19:46:25.831Z,1.90
2023-01-30T19:48:59.117Z,1.80
2023-01-30T19:51:31.074Z,2.10
2023-01-30T19:54:03.036Z,2.20
2023-01-30T19:56:33.313Z,2.10
2023-01-30T19:59:04.251Z,2.30
2023-01-30T20:01:39.787Z,2.10
2023-01-30T20:04:12.762Z,2.20
2023-01-30T20:06:46.102Z,2.10
2023-01-30T20:09:19.628Z,1.90
2023-01-30T20:11:49.455Z,2.00
2023-01-30T20:14:20.433Z,1.90
2023-01-30T20:16:51.146Z,2.00
2023-01-30T20:19:24.182Z,2.40
2023-01-30T20:21:54.023Z,2.00
2023-01-30T20:24:24.649Z,2.20
2023-01-30T20:26:54.504Z,1.90
2023-01-30T20:29:24.943Z,1.80
2023-01-30T20:31:55.741Z,1.90
2023-01-30T20:34:29.211Z,2.10
2023-01-30T20:37:00.131Z,2.10
2023-01-30T20:39:31.319Z,2.00
2023-01-30T20:42:01.127Z,1.90
2023-01-30T20:44:33.155Z,2.00
2023-01-30T20:47:03.470Z,1.90
2023-01-30T20:49:36.416Z,2.00
2023-01-30T20:52:06.342Z,1.80
2023-01-30T20:54:38.425Z,1.80
2023-01-30T20:57:08.464Z,2.00
2023-01-30T20:59:38.945Z,1.90
2023-01-30T21:02:09.119Z,2.30
2023-01-30T21:04:42.436Z,2.00
2023-01-30T21:07:12.218Z,2.00
2023-01-30T21:09:43.098Z,1.90
2023-01-30T21:12:13.704Z,2.20
2023-01-30T21:14:44.067Z,1.80
2023-01-30T21:17:13.980Z,2.00
2023-01-30T21:19:46.656Z,1.90
2023-01-30T21:22:21.262Z,1.90
2023-01-30T21:24:52.163Z,2.00
2023-01-30T21:27:22.238Z,1.90
2023-01-30T21:29:52.565Z,1.90
2023-01-30T21:32:22.373Z,1.90
2023-01-30T21:34:54.878Z,1.50
2023-01-30T21:37:45.657Z,1.30
2023-01-30T21:40:30.031Z,1.50
2023-01-30T21:43:13.038Z,1.50
2023-01-30T21:45:42.990Z,1.70
2023-01-30T21:48:13.514Z,1.50
2023-01-30T21:50:45.888Z,1.70
2023-01-30T21:53:16.565Z,1.50
2023-01-30T21:55:51.818Z,1.70
2023-01-30T21:58:22.372Z,1.80
2023-01-30T22:00:52.199Z,1.50
2023-01-30T22:03:22.336Z,1.40
2023-01-30T22:05:54.757Z,1.70
2023-01-30T22:08:24.972Z,1.40
2023-01-30T22:10:55.102Z,1.60
2023-01-30T22:13:25.413Z,1.90
2023-01-30T22:15:55.242Z,1.70
2023-01-30T22:18:25.242Z,1.60
2023-01-30T22:21:02.759Z,1.60
2023-01-30T22:23:38.923Z,1.60
2023-01-30T22:26:09.283Z,1.50
2023-01-30T22:28:40.434Z,1.70
2023-01-30T22:31:11.759Z,1.70
2023-01-30T22:33:43.354Z,1.40
2023-01-30T22:36:16.947Z,1.60
2023-01-30T22:38:48.566Z,1.70
2023-01-30T22:41:20.569Z,1.50
2023-01-30T22:43:54.735Z,1.70
2023-01-30T22:46:26.282Z,1.70
2023-01-30T22:48:57.046Z,1.60
2023-01-30T22:51:30.855Z,1.60
2023-01-30T22:54:03.600Z,1.60
2023-01-30T22:56:37.391Z,1.30
2023-01-30T22:59:08.420Z,1.30
2023-01-30T23:01:40.032Z,1.40
2023-01-30T23:04:14.187Z,1.50
2023-01-30T23:06:47.864Z,1.50
2023-01-30T23:09:23.217Z,1.20
2023-01-30T23:12:07.740Z,1.00
2023-01-30T23:14:38.054Z,1.20
2023-01-30T23:17:29.023Z,1.10
2023-01-30T23:19:57.013Z,1.50
2023-01-30T23:22:29.944Z,1.20
2023-01-30T23:24:59.943Z,1.50
2023-01-30T23:27:29.725Z,1.40
2023-01-30T23:29:59.985Z,1.30
2023-01-30T23:32:29.905Z,1.50
2023-01-30T23:35:00.206Z,1.50
2023-01-30T23:37:46.545Z,1.50
2023-01-30T23:40:17.067Z,1.30
2023-01-30T23:42:46.850Z,1.50
2023-01-30T23:45:18.051Z,1.30
2023-01-30T23:47:48.075Z,1.30
2023-01-30T23:50:19.406Z,1.00
2023-01-30T23:52:51.761Z,1.30
2023-01-30T23:55:21.944Z,1.40
2023-01-30T23:57:51.674Z,1.20
